Time;durP1;ratioP1;P1;durP2;ratioP2;P2;SDS_P1;SDS_P2;PMS_P1;PMS_P2;Temp;Humidity;BMP_temperature;BMP_pressure;BME280_temperature;BME280_humidity;BME280_pressure;Samples;Min_cycle;Max_cycle;Signal;HPM_P1;HPM_P2
2023/10/05 00:01:18;;;;;;;9.80;2.13;;;;;;;11.85;100.00;102161.63;5016353;28;20467;-88
2023/10/05 00:03:50;;;;;;;11.18;2.40;;;;;;;11.89;100.00;102167.53;5016687;28;20033;-88
2023/10/05 00:06:17;;;;;;;7.80;2.33;;;;;;;11.90;100.00;102166.50;5015653;28;20057;-88
2023/10/05 00:08:50;;;;;;;6.70;1.73;;;;;;;11.89;100.00;102165.66;5016109;28;20044;-88
2023/10/05 00:11:23;;;;;;;11.05;1.95;;;;;;;11.90;100.00;102164.63;5033811;28;20037;-88
2023/10/05 00:13:59;;;;;;;7.83;1.70;;;;;;;11.93;100.00;102168.88;5016125;28;20037;-88
2023/10/05 00:16:37;;;;;;;9.50;2.15;;;;;;;11.93;100.00;102182.47;5033881;28;20041;-87
2023/10/05 00:19:12;;;;;;;9.30;1.88;;;;;;;11.98;100.00;102176.47;5016084;28;20042;-88
2023/10/05 00:21:47;;;;;;;8.50;2.03;;;;;;;11.99;100.00;102184.44;5015782;28;20095;-88
2023/10/05 00:24:12;;;;;;;6.85;1.80;;;;;;;11.95;100.00;102172.25;5000981;28;20084;-88
2023/10/05 00:26:38;;;;;;;8.90;1.97;;;;;;;11.94;100.00;102173.25;5016125;28;20033;-88
2023/10/05 00:29:29;;;;;;;7.40;1.98;;;;;;;11.92;100.00;102170.69;5033422;28;20045;-88
2023/10/05 00:31:58;;;;;;;8.03;2.33;;;;;;;11.96;100.00;102179.38;5031551;28;20068;-88
2023/10/05 00:34:33;;;;;;;7.70;1.60;;;;;;;11.95;100.00;102180.41;5016414;28;20425;-88
2023/10/05 00:36:59;;;;;;;8.27;1.98;;;;;;;11.93;100.00;102183.31;5015958;28;20052;-88
2023/10/05 00:39:31;;;;;;;6.03;1.83;;;;;;;11.92;100.00;102191.63;5016387;28;20033;-88
2023/10/05 00:44:34;;;;;;;11.97;2.40;;;;;;;11.97;100.00;102199.25;5033348;28;20388;-88
2023/10/05 00:47:02;;;;;;;9.73;2.63;;;;;;;11.97;100.00;102191.91;5015519;28;20500;-88
2023/10/05 00:49:30;;;;;;;11.68;2.13;;;;;;;11.96;100.00;102195.69;5032869;28;20406;-88
2023/10/05 00:52:15;;;;;;;8.45;1.92;;;;;;;11.95;100.00;102194.00;5015627;28;20401;-87
2023/10/05 00:54:48;;;;;;;10.93;2.70;;;;;;;12.00;100.00;102196.13;5019199;28;20041;-88
2023/10/05 00:57:14;;;;;;;6.63;1.97;;;;;;;11.97;100.00;102185.66;5019492;28;20041;-88
2023/10/05 01:03:02;;;;;;;8.70;2.05;;;;;;;11.97;100.00;102196.53;5005379;28;20057;-88
2023/10/05 01:05:34;;;;;;;7.13;1.88;;;;;;;11.96;100.00;102195.69;5036819;28;20045;-88
2023/10/05 01:08:04;;;;;;;7.43;2.22;;;;;;;11.91;100.00;102201.69;5004776;28;20429;-88
2023/10/05 01:10:54;;;;;;;8.70;2.03;;;;;;;11.90;100.00;102199.97;5019603;28;20549;-88
2023/10/05 01:13:24;;;;;;;10.25;2.17;;;;;;;11.91;100.00;102196.25;5018806;28;20042;-88
2023/10/05 01:15:52;;;;;;;8.43;1.63;;;;;;;11.89;100.00;102201.00;5018259;28;20049;-88
2023/10/05 01:18:18;;;;;;;7.72;1.40;;;;;;;11.87;100.00;102194.94;5036912;28;20037;-88
2023/10/05 01:20:43;;;;;;;7.33;2.00;;;;;;;11.85;100.00;102187.97;5034893;28;20037;-88
2023/10/05 01:23:09;;;;;;;9.95;1.88;;;;;;;11.86;100.00;102193.22;5019400;28;20072;-88
2023/10/05 01:25:36;;;;;;;10.73;1.93;;;;;;;11.84;100.00;102192.59;5036170;28;20440;-88
2023/10/05 01:28:09;;;;;;;8.90;2.03;;;;;;;11.83;100.00;102188.19;5018557;28;20061;-88
2023/10/05 01:30:38;;;;;;;11.00;2.03;;;;;;;11.80;100.00;102182.28;5002564;28;20045;-88
2023/10/05 01:33:04;;;;;;;6.88;1.70;;;;;;;11.79;100.00;102186.03;5035193;28;20056;-87
2023/10/05 01:35:32;;;;;;;5.13;1.95;;;;;;;11.80;100.00;102188.56;5002162;28;20489;-88
2023/10/05 01:38:02;;;;;;;8.00;2.03;;;;;;;11.74;100.00;102187.44;5034922;28;20128;-88
2023/10/05 01:40:30;;;;;;;12.27;2.10;;;;;;;11.74;100.00;102195.59;5018347;28;20041;-88
2023/10/05 01:42:56;;;;;;;6.10;2.03;;;;;;;11.75;100.00;102186.41;5018292;28;20037;-88
2023/10/05 01:45:29;;;;;;;9.27;1.80;;;;;;;11.77;100.00;102197.09;5035969;28;20490;-88
2023/10/05 01:47:56;;;;;;;9.57;2.10;;;;;;;11.77;100.00;102186.22;5018616;28;20044;-88
2023/10/05 01:50:27;;;;;;;11.30;2.30;;;;;;;11.83;100.00;102181.91;5001597;28;20508;-88
2023/10/05 01:53:02;;;;;;;7.20;1.70;;;;;;;11.76;100.00;102185.38;5002317;28;20034;-88
2023/10/05 01:55:30;;;;;;;8.57;2.50;;;;;;;11.76;100.00;102181.81;5018149;28;20145;-88
2023/10/05 01:57:55;;;;;;;6.18;1.70;;;;;;;11.74;100.00;102176.56;5017952;28;20128;-88
2023/10/05 02:00:23;;;;;;;9.37;1.77;;;;;;;11.71;100.00;102176.13;5017767;28;20047;-88
2023/10/05 02:02:49;;;;;;;9.98;3.15;;;;;;;11.68;100.00;102185.50;5018022;28;20025;-88
2023/10/05 02:05:19;;;;;;;8.75;1.88;;;;;;;11.70;100.00;102182.59;5017506;28;20112;-88
2023/10/05 02:07:45;;;;;;;5.57;2.00;;;;;;;11.70;100.00;102177.16;5017921;28;20041;-88
2023/10/05 02:10:13;;;;;;;9.17;2.37;;;;;;;11.69;100.00;102187.19;5034757;28;20037;-87
2023/10/05 02:12:39;;;;;;;8.00;1.88;;;;;;;11.66;100.00;102178.56;5018072;28;20054;-87
2023/10/05 02:15:16;;;;;;;16.05;2.78;;;;;;;11.69;100.00;102176.31;5017514;28;20071;-88
2023/10/05 02:17:45;;;;;;;8.23;2.20;;;;;;;11.67;100.00;102161.22;5017946;28;20037;-88
2023/10/05 02:20:25;;;;;;;9.45;2.20;;;;;;;11.67;100.00;102167.47;5034289;28;20033;-88
2023/10/05 02:22:50;;;;;;;8.15;1.98;;;;;;;11.68;100.00;102171.06;5017796;28;20040;-88
2023/10/05 02:25:21;;;;;;;10.20;2.17;;;;;;;11.68;100.00;102173.78;5017156;28;20081;-88
2023/10/05 02:27:52;;;;;;;11.45;2.22;;;;;;;11.63;100.00;102174.34;5017479;28;20064;-87
2023/10/05 02:30:23;;;;;;;9.13;1.88;;;;;;;11.63;100.00;102166.19;5018172;28;20072;-88
2023/10/05 02:32:51;;;;;;;9.20;1.85;;;;;;;11.62;100.00;102169.09;5017757;28;20060;-88
2023/10/05 02:35:24;;;;;;;9.30;2.03;;;;;;;11.63;100.00;102176.22;5035390;28;20072;-88
2023/10/05 02:37:52;;;;;;;9.68;2.25;;;;;;;11.62;100.00;102166.38;5017309;28;20068;-87
2023/10/05 02:40:25;;;;;;;9.98;2.25;;;;;;;11.60;100.00;102150.25;5001010;28;20064;-88
2023/10/05 02:42:54;;;;;;;6.93;1.80;;;;;;;11.59;100.00;102159.47;5017158;28;20052;-87
2023/10/05 02:45:22;;;;;;;8.15;2.33;;;;;;;11.57;100.00;102161.50;5033663;28;20049;-87
2023/10/05 02:47:51;;;;;;;8.85;1.95;;;;;;;11.51;100.00;102154.94;5016992;28;20037;-89
2023/10/05 02:50:18;;;;;;;10.27;2.10;;;;;;;11.51;100.00;102151.41;5017355;28;20107;-88
2023/10/05 02:52:44;;;;;;;7.57;1.92;;;;;;;11.45;100.00;102141.28;5000879;28;20045;-88
2023/10/05 02:55:09;;;;;;;7.23;1.77;;;;;;;11.45;100.00;102146.72;5016773;28;20474;-88
2023/10/05 02:57:39;;;;;;;7.17;2.03;;;;;;;11.45;100.00;102150.28;5000606;28;20049;-87
2023/10/05 03:00:16;;;;;;;8.98;1.90;;;;;;;11.48;100.00;102160.75;5034040;28;20045;-88
2023/10/05 03:02:50;;;;;;;9.73;2.00;;;;;;;11.47;100.00;102161.81;5017347;28;20425;-88
2023/10/05 03:05:15;;;;;;;10.77;2.80;;;;;;;11.44;100.00;102155.91;5001891;28;20049;-88
2023/10/05 03:07:41;;;;;;;7.45;2.03;;;;;;;11.46;100.00;102156.56;5016838;28;20136;-88
2023/10/05 03:10:10;;;;;;;5.90;1.83;;;;;;;11.45;100.00;102146.72;5016810;28;20064;-88
2023/10/05 03:12:36;;;;;;;10.32;2.00;;;;;;;11.45;100.00;102153.00;5001559;28;20092;-88
2023/10/05 03:15:08;;;;;;;7.43;1.60;;;;;;;11.43;100.00;102143.34;5016342;28;20517;-88
2023/10/05 03:17:37;;;;;;;8.10;1.70;;;;;;;11.39;100.00;102141.00;5016296;28;20041;-88
2023/10/05 03:20:09;;;;;;;9.15;2.08;;;;;;;11.36;100.00;102151.41;5017133;28;20051;-88
2023/10/05 03:22:35;;;;;;;7.40;1.90;;;;;;;11.39;100.00;102156.47;5034526;28;20034;-88
2023/10/05 03:25:01;;;;;;;13.67;1.77;;;;;;;11.35;100.00;102147.88;5000691;28;20457;-88
2023/10/05 03:27:26;;;;;;;6.80;1.95;;;;;;;11.29;100.00;102140.44;5033177;28;20045;-87
2023/10/05 03:30:00;;;;;;;8.90;1.80;;;;;;;11.28;100.00;102144.22;5016425;28;20045;-87
2023/10/05 03:32:28;;;;;;;6.18;1.88;;;;;;;11.24;100.00;102140.19;5016707;28;20029;-87
2023/10/05 03:34:56;;;;;;;12.88;2.17;;;;;;;11.25;100.00;102136.44;5032882;28;20049;-87
2023/10/05 03:37:22;;;;;;;4.40;1.58;;;;;;;11.22;100.00;102147.69;5034002;28;20087;-87
2023/10/05 03:39:51;;;;;;;10.43;1.83;;;;;;;11.22;100.00;102147.69;5015990;28;20115;-88
2023/10/05 03:42:17;;;;;;;11.88;2.22;;;;;;;11.16;100.00;102143.84;5016245;28;20046;-88
2023/10/05 03:44:43;;;;;;;8.32;2.05;;;;;;;11.16;100.00;102143.84;5016051;28;20033;-87
2023/10/05 03:47:11;;;;;;;7.73;1.70;;;;;;;11.15;100.00;102147.59;5016139;28;20531;-88
2023/10/05 03:49:37;;;;;;;10.43;2.13;;;;;;;11.13;100.00;102148.78;5016121;28;20517;-88
2023/10/05 03:52:06;;;;;;;12.73;2.50;;;;;;;11.08;100.00;102153.97;5033810;28;20125;-88
2023/10/05 03:54:33;;;;;;;9.65;2.45;;;;;;;11.06;100.00;102144.13;5016010;28;20116;-87
2023/10/05 03:57:10;;;;;;;10.02;2.00;;;;;;;11.09;100.00;102144.75;5016176;28;20026;-88
2023/10/05 03:59:36;;;;;;;7.85;1.90;;;;;;;11.06;100.00;102149.53;5001220;28;20073;-88
2023/10/05 04:02:03;;;;;;;7.20;2.27;;;;;;;11.05;100.00;102136.16;5015676;28;20119;-87
2023/10/05 04:04:34;;;;;;;14.68;2.40;;;;;;;11.03;100.00;102127.38;5016672;28;20044;-88
2023/10/05 04:07:03;;;;;;;8.60;1.85;;;;;;;10.99;100.00;102134.19;5014110;28;20060;-87
2023/10/05 04:09:33;;;;;;;8.65;1.88;;;;;;;10.98;100.00;102129.78;5015860;28;20041;-87
2023/10/05 04:12:00;;;;;;;13.73;2.30;;;;;;;10.94;100.00;102132.03;5030244;28;20494;-88
2023/10/05 04:14:26;;;;;;;6.13;1.95;;;;;;;10.92;100.00;102134.06;5015814;28;20093;-87
2023/10/05 04:16:53;;;;;;;10.05;2.47;;;;;;;10.93;100.00;102140.38;4999130;28;20145;-87
2023/10/05 04:19:19;;;;;;;11.73;3.00;;;;;;;10.92;100.00;102142.22;5015847;28;20044;-87
2023/10/05 04:21:45;;;;;;;10.13;2.13;;;;;;;10.93;100.00;102140.38;5016328;28;20033;-88
2023/10/05 04:24:14;;;;;;;13.32;2.33;;;;;;;10.93;100.00;102138.50;5032244;28;20041;-88
2023/10/05 04:26:47;;;;;;;6.95;2.00;;;;;;;10.88;100.00;102130.91;5015620;28;20136;-90
2023/10/05 04:29:14;;;;;;;11.10;2.20;;;;;;;10.87;100.00;102141.97;5003885;28;20048;-88
2023/10/05 04:31:40;;;;;;;14.90;2.57;;;;;;;10.85;100.00;102142.16;5015326;28;20449;-88
2023/10/05 04:34:11;;;;;;;8.82;2.30;;;;;;;10.88;100.00;102143.66;5019815;28;20484;-89
2023/10/05 04:36:38;;;;;;;12.63;2.38;;;;;;;10.86;100.00;102137.53;5019876;28;20425;-88
2023/10/05 04:39:05;;;;;;;6.25;2.65;;;;;;;10.84;100.00;102139.63;5019878;28;20042;-87
2023/10/05 04:41:33;;;;;;;15.65;3.17;;;;;;;10.87;100.00;102142.78;5002972;28;20512;-88
2023/10/05 04:44:00;;;;;;;8.23;2.37;;;;;;;10.83;100.00;102129.78;5019130;28;20485;-88
2023/10/05 04:46:28;;;;;;;10.30;2.35;;;;;;;10.82;100.00;102139.81;5019684;28;20049;-87
2023/10/05 04:49:07;;;;;;;12.20;2.28;;;;;;;10.84;100.00;102145.03;5003649;28;20402;-88
2023/10/05 04:51:41;;;;;;;7.30;2.65;;;;;;;10.81;100.00;102132.69;5019231;28;20037;-87
2023/10/05 04:54:10;;;;;;;11.27;2.50;;;;;;;10.86;100.00;102138.38;5037602;28;20090;-87
2023/10/05 04:56:43;;;;;;;8.30;2.20;;;;;;;10.86;100.00;102138.38;5019249;28;20037;-87
2023/10/05 05:07:09;;;;;;;13.45;2.40;;;;;;;10.95;100.00;102132.88;5036451;28;20048;-88
2023/10/05 05:09:39;;;;;;;10.67;2.60;;;;;;;10.96;100.00;102140.84;5003856;28;20073;-88
2023/10/05 05:12:20;;;;;;;10.55;2.85;;;;;;;11.02;100.00;102147.41;5018896;28;20044;-87
2023/10/05 05:14:53;;;;;;;8.93;2.67;;;;;;;10.99;100.00;102143.16;5018379;28;20095;-87
2023/10/05 05:17:25;;;;;;;8.85;3.00;;;;;;;11.01;100.00;102145.69;5019497;28;20124;-87
2023/10/05 05:19:55;;;;;;;10.98;2.67;;;;;;;11.02;100.00;102144.69;5018885;28;20064;-87
2023/10/05 05:22:21;;;;;;;9.83;2.87;;;;;;;11.02;100.00;102144.69;5003632;28;20038;-87
2023/10/05 05:24:47;;;;;;;6.75;2.65;;;;;;;11.03;100.00;102152.63;5018331;28;20129;-87
2023/10/05 05:29:45;;;;;;;9.95;2.85;;;;;;;10.99;100.00;102156.75;5019628;28;20038;-88
2023/10/05 05:32:11;;;;;;;16.90;2.60;;;;;;;10.99;100.00;102155.91;5018407;28;20092;-87
2023/10/05 05:34:37;;;;;;;10.73;2.78;;;;;;;11.00;100.00;102155.72;5029772;28;20033;-88
2023/10/05 05:37:05;;;;;;;11.10;2.53;;;;;;;11.02;100.00;102150.09;5018730;28;20461;-87
2023/10/05 05:39:38;;;;;;;12.93;2.83;;;;;;;11.02;100.00;102167.25;5017496;28;20048;-87
2023/10/05 05:42:06;;;;;;;12.43;2.83;;;;;;;11.03;100.00;102146.38;5019022;28;20041;-88
2023/10/05 05:44:34;;;;;;;10.85;3.17;;;;;;;11.09;100.00;102161.06;5018077;28;20037;-87
2023/10/05 05:47:10;;;;;;;10.10;2.50;;;;;;;11.13;100.00;102160.53;5036063;28;20047;-87
2023/10/05 05:49:45;;;;;;;11.23;2.53;;;;;;;11.14;100.00;102162.19;5019891;28;20068;-87
2023/10/05 05:52:13;;;;;;;11.60;3.05;;;;;;;11.19;100.00;102165.19;5018396;28;20488;-87
2023/10/05 05:54:46;;;;;;;7.65;2.08;;;;;;;11.19;100.00;102167.91;5018154;28;20132;-87
2023/10/05 05:57:12;;;;;;;11.65;2.78;;;;;;;11.22;100.00;102166.72;5018772;28;20037;-87
2023/10/05 05:59:43;;;;;;;10.17;2.73;;;;;;;11.26;100.00;102172.59;5017516;28;20034;-86
2023/10/05 06:02:11;;;;;;;10.35;2.88;;;;;;;11.26;100.00;102162.56;5002584;28;20073;-87
2023/10/05 06:04:41;;;;;;;11.65;3.28;;;;;;;11.29;100.00;102159.47;5018158;28;20045;-87
2023/10/05 06:07:13;;;;;;;11.25;2.65;;;;;;;11.33;100.00;102152.63;5017625;28;20033;-87
2023/10/05 06:09:43;;;;;;;16.20;2.83;;;;;;;11.33;100.00;102168.09;5017870;28;20042;-87
2023/10/05 06:12:13;;;;;;;10.27;2.85;;;;;;;11.35;100.00;102169.59;5017261;28;20041;-87
2023/10/05 06:14:40;;;;;;;11.00;3.55;;;;;;;11.35;100.00;102169.59;5018153;28;20377;-87
2023/10/05 06:17:06;;;;;;;8.68;3.05;;;;;;;11.38;100.00;102177.38;5017483;28;20112;-87
2023/10/05 06:19:32;;;;;;;12.68;3.50;;;;;;;11.41;100.00;102179.72;5017488;28;20029;-87
2023/10/05 06:21:57;;;;;;;9.70;2.87;;;;;;;11.43;100.00;102189.53;5033770;28;20046;-87
2023/10/05 06:24:24;;;;;;;9.93;2.53;;;;;;;11.45;100.00;102185.59;5033590;28;20041;-87
2023/10/05 06:26:49;;;;;;;13.60;2.70;;;;;;;11.52;100.00;102202.00;5035324;28;20116;-87
2023/10/05 06:29:14;;;;;;;16.90;3.13;;;;;;;11.56;100.00;102195.19;5017389;28;20115;-87
2023/10/05 06:31:40;;;;;;;8.80;2.80;;;;;;;11.61;100.00;102198.16;5017660;28;20415;-87
2023/10/05 06:34:09;;;;;;;9.13;2.85;;;;;;;11.66;100.00;102203.03;5018191;28;20124;-87
2023/10/05 06:36:44;;;;;;;12.68;2.60;;;;;;;11.71;100.00;102208.75;5017409;28;20107;-87
2023/10/05 06:39:09;;;;;;;10.80;3.10;;;;;;;11.75;100.00;102207.31;5018026;28;20037;-87
2023/10/05 06:41:38;;;;;;;9.77;2.50;;;;;;;11.81;100.00;102205.72;5016974;28;20107;-87
2023/10/05 06:44:06;;;;;;;8.43;2.30;;;;;;;11.83;100.00;102206.38;5017003;28;20033;-87
2023/10/05 06:46:32;;;;;;;12.95;2.90;;;;;;;11.88;100.00;102220.25;5017031;28;20067;-87
2023/10/05 06:48:57;;;;;;;12.63;2.83;;;;;;;11.88;100.00;102207.47;5017045;28;20500;-87
2023/10/05 06:51:28;;;;;;;10.37;2.67;;;;;;;11.95;100.00;102214.91;5033796;28;20089;-87
2023/10/05 06:53:57;;;;;;;13.63;2.92;;;;;;;11.98;100.00;102212.66;5017132;28;20040;-86
2023/10/05 06:56:23;;;;;;;7.05;2.55;;;;;;;12.03;100.00;102218.38;5016778;28;20107;-87
2023/10/05 06:58:51;;;;;;;11.38;2.55;;;;;;;12.06;100.00;102220.72;5000995;28;20080;-87
2023/10/05 07:01:20;;;;;;;10.23;2.77;;;;;;;12.11;100.00;102225.56;5016956;28;20068;-86
2023/10/05 07:03:52;;;;;;;15.75;2.97;;;;;;;12.14;100.00;102232.50;5017048;28;20411;-87
2023/10/05 07:06:24;;;;;;;13.05;3.00;;;;;;;12.19;100.00;102236.31;5016975;28;20133;-89
2023/10/05 07:08:52;;;;;;;10.03;2.57;;;;;;;12.21;100.00;102230.69;5017527;28;20507;-87
2023/10/05 07:11:18;;;;;;;9.68;2.60;;;;;;;12.26;100.00;102233.69;5016670;28;20037;-87
2023/10/05 07:13:44;;;;;;;11.43;2.72;;;;;;;12.29;100.00;102236.00;5016930;28;20367;-87
2023/10/05 07:16:12;;;;;;;9.67;2.70;;;;;;;12.33;100.00;102244.63;4996567;28;20145;-87
2023/10/05 07:18:39;;;;;;;9.00;2.85;;;;;;;12.40;100.00;102250.97;4996662;28;20133;-87
2023/10/05 07:21:11;;;;;;;7.32;3.00;;;;;;;12.45;100.00;102248.53;4996845;28;20133;-87
2023/10/05 07:23:41;;;;;;;10.43;3.15;;;;;;;12.53;100.00;102253.84;5012515;28;20137;-87
2023/10/05 07:26:09;;;;;;;14.57;2.90;;;;;;;12.58;100.00;102240.50;4996767;28;20040;-86
2023/10/05 07:28:40;;;;;;;9.80;2.67;;;;;;;12.67;100.00;102246.66;4996716;28;20470;-86
2023/10/05 07:31:09;;;;;;;7.30;2.90;;;;;;;12.77;100.00;102259.94;5013110;28;20057;-86
2023/10/05 07:33:35;;;;;;;11.93;2.92;;;;;;;12.83;100.00;102264.63;4996925;28;20535;-86
2023/10/05 07:36:02;;;;;;;11.80;2.78;;;;;;;12.88;100.00;102269.47;4980713;28;20038;-88
2023/10/05 07:38:28;;;;;;;9.40;2.53;;;;;;;12.92;100.00;102274.34;4997133;28;20065;-87
2023/10/05 07:40:56;;;;;;;7.82;2.65;;;;;;;12.96;100.00;102277.50;4996383;28;20501;-87
2023/10/05 07:43:28;;;;;;;12.77;2.78;;;;;;;12.99;100.00;102275.22;4980310;28;20085;-87
2023/10/05 07:45:54;;;;;;;10.07;2.78;;;;;;;13.02;100.00;102276.72;4996359;28;20053;-87
2023/10/05 07:48:20;;;;;;;8.93;2.30;;;;;;;13.05;100.00;102278.19;4996697;28;20466;-86
2023/10/05 07:50:48;;;;;;;8.43;2.72;;;;;;;13.06;100.00;102279.88;4996119;28;20430;-87
2023/10/05 07:53:14;;;;;;;7.75;2.40;;;;;;;13.14;100.00;102288.75;5014565;28;20037;-87
2023/10/05 07:55:42;;;;;;;7.00;2.40;;;;;;;13.23;100.00;102280.44;4996435;28;20092;-87
2023/10/05 07:58:12;;;;;;;7.18;2.15;;;;;;;13.31;100.00;102283.00;4980768;28;20065;-87
2023/10/05 08:00:42;;;;;;;10.68;2.50;;;;;;;13.38;100.00;102288.56;4996624;28;20034;-87
2023/10/05 08:03:09;;;;;;;8.27;3.00;;;;;;;13.40;100.00;102284.56;4979251;28;20038;-88
2023/10/05 08:05:34;;;;;;;11.30;2.50;;;;;;;13.54;100.00;102296.44;4996600;28;20100;-88
2023/10/05 08:08:01;;;;;;;6.60;2.63;;;;;;;13.61;100.00;102283.69;4964158;28;20494;-87
2023/10/05 08:10:28;;;;;;;11.05;2.90;;;;;;;13.75;100.00;102292.75;4996196;28;20098;-87
2023/10/05 08:12:53;;;;;;;11.57;3.17;;;;;;;13.82;100.00;102285.47;4980150;28;20033;-87
2023/10/05 08:15:19;;;;;;;8.20;2.25;;;;;;;13.83;100.00;102289.03;5015513;28;20386;-87
2023/10/05 08:17:46;;;;;;;11.37;2.40;;;;;;;13.90;100.00;102291.81;5015792;28;20120;-87
2023/10/05 08:20:11;;;;;;;8.55;2.22;;;;;;;13.96;100.00;102299.16;5015794;28;20037;-87
2023/10/05 08:22:37;;;;;;;8.30;3.00;;;;;;;14.01;100.00;102310.31;5015439;28;20072;-88
2023/10/05 08:25:10;;;;;;;10.25;2.65;;;;;;;14.07;100.00;102298.59;5033344;28;20068;-87
2023/10/05 08:27:37;;;;;;;6.30;2.45;;;;;;;14.11;100.00;102302.59;5031802;28;20075;-88
2023/10/05 08:30:04;;;;;;;9.23;2.38;;;;;;;14.21;100.00;102307.66;5015667;28;20040;-87
2023/10/05 08:32:33;;;;;;;6.00;2.10;;;;;;;14.28;100.00;102314.00;5033235;28;20494;-88
2023/10/05 08:35:07;;;;;;;11.50;2.47;;;;;;;14.31;100.00;102308.13;5015443;28;20040;-87
2023/10/05 08:37:34;;;;;;;10.27;2.40;;;;;;;14.37;100.00;102299.13;5015812;28;20481;-87
2023/10/05 08:39:59;;;;;;;10.98;2.47;;;;;;;14.46;100.00;102307.97;5033280;28;20128;-87
2023/10/05 08:42:27;;;;;;;11.57;2.03;;;;;;;14.53;100.00;102313.47;5015232;28;20495;-87
2023/10/05 08:44:53;;;;;;;7.97;2.20;;;;;;;14.63;100.00;102315.81;5015431;28;20065;-88
2023/10/05 08:47:22;;;;;;;8.32;2.40;;;;;;;14.72;100.00;102320.88;5015226;28;20040;-87
2023/10/05 08:49:50;;;;;;;6.85;2.25;;;;;;;14.71;100.00;102313.72;5015697;28;20037;-87
2023/10/05 08:52:20;;;;;;;9.85;2.20;;;;;;;14.76;100.00;102324.03;5032821;28;20073;-87
2023/10/05 08:54:46;;;;;;;11.57;2.37;;;;;;;14.80;100.00;102324.47;5031895;28;20049;-87
2023/10/05 08:57:17;;;;;;;7.43;1.92;;;;;;;14.88;100.00;102341.50;5015765;28;20088;-88
2023/10/05 08:59:50;;;;;;;11.60;2.28;;;;;;;14.92;100.00;102325.53;5015704;28;20103;-88
2023/10/05 09:02:18;;;;;;;5.95;2.08;;;;;;;15.03;100.00;102335.84;5015087;28;20056;-88
2023/10/05 09:04:59;;;;;;;9.68;2.17;;;;;;;15.07;100.00;102328.06;5015059;28;20489;-88
2023/10/05 09:07:29;;;;;;;11.07;2.73;;;;;;;15.13;100.00;102329.13;4999974;28;20041;-87
2023/10/05 09:09:55;;;;;;;9.07;2.72;;;;;;;15.17;100.00;102339.41;5032919;28;20071;-88
2023/10/05 09:12:34;;;;;;;7.82;2.22;;;;;;;15.29;100.00;102344.25;4998887;28;20511;-91
2023/10/05 09:17:57;;;;;;;6.07;1.98;;;;;;;15.37;100.00;102363.22;5036493;28;20045;-88
2023/10/05 09:20:30;;;;;;;8.85;2.17;;;;;;;15.43;100.00;102367.84;5036452;28;20041;-87
2023/10/05 09:22:58;;;;;;;7.85;2.00;;;;;;;15.48;100.00;102367.19;5018836;28;20033;-88
2023/10/05 09:25:27;;;;;;;5.80;1.75;;;;;;;15.42;100.00;102374.34;5018690;28;20065;-88
2023/10/05 09:27:59;;;;;;;9.63;2.07;;;;;;;15.38;100.00;102373.94;5002618;28;20091;-88
2023/10/05 09:30:29;;;;;;;4.13;1.92;;;;;;;15.39;100.00;102366.56;5018785;28;20037;-88
2023/10/05 09:33:18;;;;;;;12.38;2.35;;;;;;;15.51;100.00;102361.28;5019429;28;20072;-88
2023/10/05 09:35:50;;;;;;;8.27;1.95;;;;;;;15.60;100.00;102377.28;5003212;28;20041;-88
2023/10/05 09:38:21;;;;;;;9.10;2.40;;;;;;;15.62;100.00;102368.88;5018317;28;20041;-88
2023/10/05 09:40:47;;;;;;;10.63;2.60;;;;;;;15.68;100.00;102368.03;5018124;28;20037;-88
2023/10/05 09:43:18;;;;;;;10.40;2.80;;;;;;;15.77;100.00;102368.63;5017916;28;20036;-89
2023/10/05 09:45:49;;;;;;;8.30;2.45;;;;;;;15.78;100.00;102365.72;5018681;28;20469;-88
2023/10/05 09:48:19;;;;;;;7.30;2.00;;;;;;;15.70;99.25;102370.53;5017878;28;20034;-88
2023/10/05 09:50:46;;;;;;;18.35;2.97;;;;;;;15.60;100.00;102365.50;5017916;28;20037;-88
2023/10/05 09:53:17;;;;;;;8.77;1.90;;;;;;;15.62;100.00;102368.88;5001865;28;20096;-88
2023/10/05 09:55:46;;;;;;;8.98;2.17;;;;;;;15.60;100.00;102368.22;5018848;28;20091;-88
2023/10/05 09:58:13;;;;;;;7.53;1.92;;;;;;;15.67;100.00;102366.31;5035528;28;20119;-88
2023/10/05 10:03:06;;;;;;;9.57;2.00;;;;;;;15.79;99.92;102381.06;5017753;28;20037;-88
2023/10/05 10:05:41;;;;;;;10.43;2.20;;;;;;;15.87;100.00;102377.28;5018638;28;20033;-88
2023/10/05 10:08:13;;;;;;;8.57;2.45;;;;;;;16.01;99.85;102378.09;5017687;28;20192;-89
2023/10/05 10:10:43;;;;;;;6.50;1.90;;;;;;;16.08;99.32;102378.06;5017524;28;20036;-88
2023/10/05 10:13:12;;;;;;;14.53;2.40;;;;;;;16.08;98.31;102375.34;5035690;28;20068;-88
2023/10/05 10:15:46;;;;;;;7.07;2.08;;;;;;;16.10;98.94;102374.03;5017385;28;20053;-88
2023/10/05 10:18:15;;;;;;;9.65;2.38;;;;;;;16.27;98.78;102371.69;5017409;28;20045;-88
2023/10/05 10:20:48;;;;;;;17.55;2.63;;;;;;;16.31;96.83;102374.81;5017876;28;20076;-88
2023/10/05 10:23:19;;;;;;;10.77;2.35;;;;;;;16.29;97.04;102377.78;5017699;28;20033;-89
2023/10/05 10:25:46;;;;;;;9.00;2.30;;;;;;;16.33;96.84;102363.66;5016946;28;20068;-87
2023/10/05 10:28:17;;;;;;;8.85;2.60;;;;;;;16.43;97.33;102372.25;5016901;28;20033;-88
2023/10/05 10:30:48;;;;;;;6.18;2.03;;;;;;;16.63;95.88;102353.81;5017566;28;20044;-88
2023/10/05 10:33:30;;;;;;;10.35;2.58;;;;;;;16.73;95.84;102368.94;5017298;28;20041;-89
2023/10/05 10:35:58;;;;;;;9.10;2.00;;;;;;;16.90;94.72;102367.38;5018085;28;20053;-89
2023/10/05 10:38:24;;;;;;;8.60;2.10;;;;;;;16.85;94.44;102369.91;5034923;28;20037;-89
2023/10/05 10:41:15;;;;;;;7.40;2.20;;;;;;;16.88;93.67;102374.16;5001135;28;20414;-89
2023/10/05 10:43:50;;;;;;;9.55;2.28;;;;;;;16.84;92.77;102374.56;5016614;28;20503;-88
2023/10/05 10:46:28;;;;;;;8.90;2.10;;;;;;;16.82;93.28;102375.84;5018064;28;20127;-88
2023/10/05 10:48:58;;;;;;;6.70;1.95;;;;;;;17.03;93.16;102368.38;5017611;28;20048;-88
2023/10/05 10:51:31;;;;;;;11.43;2.90;;;;;;;17.33;92.49;102371.28;5016663;28;20136;-89
2023/10/05 10:54:08;;;;;;;12.15;2.20;;;;;;;17.71;90.31;102362.91;5017236;28;20038;-88
2023/10/05 10:56:42;;;;;;;8.38;2.20;;;;;;;17.93;88.31;102364.44;5017824;28;20454;-87
2023/10/05 10:59:13;;;;;;;6.93;2.37;;;;;;;18.28;87.01;102361.91;5017039;28;20081;-87
2023/10/05 11:01:52;;;;;;;9.57;2.33;;;;;;;18.96;83.74;102362.69;5017050;28;20056;-88
2023/10/05 11:04:25;;;;;;;5.05;2.10;;;;;;;20.34;76.22;102347.69;5016747;28;20033;-87
2023/10/05 11:07:07;;;;;;;9.73;2.40;;;;;;;21.57;72.49;102346.31;5001286;28;20087;-88
2023/10/05 11:09:48;;;;;;;9.40;3.10;;;;;;;23.10;66.78;102359.47;5016986;28;20469;-86
2023/10/05 11:12:23;;;;;;;8.73;2.57;;;;;;;24.96;61.82;102352.91;5016996;28;20096;-88
2023/10/05 11:15:02;;;;;;;7.53;2.38;;;;;;;26.18;57.19;102353.03;5017375;28;20064;-87
2023/10/05 11:17:35;;;;;;;7.95;2.60;;;;;;;25.90;51.78;102349.75;5016753;28;20054;-87
2023/10/05 11:20:13;;;;;;;9.68;2.63;;;;;;;26.00;51.85;102363.66;5017277;28;20489;-87
2023/10/05 11:22:42;;;;;;;9.73;2.72;;;;;;;25.85;51.44;102360.88;5001420;28;20041;-88
2023/10/05 11:25:17;;;;;;;6.00;2.17;;;;;;;25.88;53.18;102361.16;5017144;28;20103;-87
2023/10/05 11:27:56;;;;;;;7.65;2.78;;;;;;;25.99;51.42;102352.78;5001098;28;20084;-87
2023/10/05 11:30:47;;;;;;;9.70;2.40;;;;;;;27.03;49.91;102345.53;5016346;28;20091;-88
2023/10/05 11:33:15;;;;;;;8.90;2.75;;;;;;;28.07;45.72;102346.19;5017075;28;20462;-87
2023/10/05 11:35:53;;;;;;;11.50;2.72;;;;;;;27.76;47.86;102343.75;5016203;28;20144;-87
2023/10/05 11:38:21;;;;;;;5.33;2.93;;;;;;;26.57;47.32;102339.13;5015499;28;20129;-88
2023/10/05 11:40:50;;;;;;;8.50;2.88;;;;;;;25.37;50.85;102342.66;5016432;28;20109;-88
2023/10/05 11:43:17;;;;;;;7.45;3.10;;;;;;;25.95;50.49;102348.91;5000161;28;20037;-88
2023/10/05 11:48:48;;;;;;;7.43;2.83;;;;;;;27.84;45.26;102326.34;5030445;28;20033;-91
2023/10/05 11:51:21;;;;;;;9.53;2.80;;;;;;;28.08;45.52;102336.66;5016508;28;20409;-91